De Pinte, Belgium
Current Conditions -  °F | °C
As of 9:25 PM on Tuesday 25 Nov 2014 (Local Time) from EBCV Reporting Station
Broken Clouds Broken Clouds  
Wind Chill: 39°   Ceiling: 18000
Heat Index: 43°   Visibility: 6mi
Dew Point: 37°   Wind: 7mph
Humidity: 81%   Direction: 90°E
Pressure: 30.03"   Gusts: NA
Location:  50.99°N, 3.65°E
Report Text: EBCV 252025Z AUTO 09006KT 9999 FEW120/// BKN180/// 06/03 Q1017 BLU
Loading
Personal Weather Stations






























Interactive Weather Map New forecast layout! Learn more

10-Day Weather Forecast

Advertisements
Track Severe Weather on mobile